Time;durP1;ratioP1;P1;durP2;ratioP2;P2;SDS_P1;SDS_P2;PMS_P1;PMS_P2;Temp;Humidity;BMP_temperature;BMP_pressure;BME280_temperature;BME280_humidity;BME280_pressure;Samples;Min_cycle;Max_cycle;Signal;HPM_P1;HPM_P2
2021/08/09 00:04:47;;;;;;;5.27;3.30;;;;;;;16.69;71.42;99515.08;517739;1089;116472;-60
2021/08/09 00:14:54;;;;;;;3.87;3.37;;;;;;;16.66;71.93;99526.79;532534;1088;116465;-60
2021/08/09 00:25:00;;;;;;;2.90;2.70;;;;;;;16.73;72.45;99519.11;532545;1089;117205;-60
2021/08/09 00:35:09;;;;;;;4.27;3.20;;;;;;;16.75;71.81;99498.59;528942;1088;117071;-60
2021/08/09 00:45:17;;;;;;;9.30;3.17;;;;;;;16.60;72.27;99484.92;532521;1088;116199;-60
2021/08/09 00:55:24;;;;;;;2.63;2.43;;;;;;;16.39;72.22;99493.87;532543;1089;116568;-60
2021/08/09 01:05:31;;;;;;;5.20;3.43;;;;;;;16.11;72.97;99498.98;531569;1088;117256;-60
2021/08/09 01:15:40;;;;;;;6.73;3.30;;;;;;;15.80;73.37;99516.70;532385;1089;117326;-60
2021/08/09 01:25:53;;;;;;;4.77;2.90;;;;;;;15.60;73.83;99518.45;531422;1088;117856;-60
2021/08/09 01:36:00;;;;;;;3.73;3.07;;;;;;;15.59;73.99;99530.01;532540;1089;116114;-60
2021/08/09 01:46:12;;;;;;;4.05;3.68;;;;;;;15.66;74.46;99545.22;532588;1089;117108;-60
2021/08/09 01:56:19;;;;;;;6.43;2.90;;;;;;;15.76;74.58;99547.08;531826;1089;116538;-60
2021/08/09 02:06:25;;;;;;;3.70;3.40;;;;;;;15.52;74.79;99540.25;532435;1090;116600;-60
2021/08/09 02:16:37;;;;;;;6.77;3.30;;;;;;;15.23;75.08;99552.34;531882;1089;117092;-60
2021/08/09 02:26:50;;;;;;;5.23;3.00;;;;;;;14.97;75.11;99573.89;532594;1089;116615;-60
2021/08/09 02:36:57;;;;;;;4.23;2.90;;;;;;;14.79;75.43;99589.46;532497;1089;116849;-60
2021/08/09 02:47:05;;;;;;;6.33;3.13;;;;;;;14.66;75.99;99616.04;531815;1090;117102;-60
2021/08/09 02:57:13;;;;;;;3.73;3.38;;;;;;;14.44;76.15;99632.77;532526;1089;116557;-60
2021/08/09 03:07:20;;;;;;;5.00;2.87;;;;;;;14.23;76.17;99646.70;532489;1089;118138;-60
2021/08/09 03:17:27;;;;;;;4.87;3.50;;;;;;;14.03;76.42;99648.27;531821;1088;116769;-60
2021/08/09 03:27:33;;;;;;;4.37;3.13;;;;;;;13.93;76.85;99669.27;532638;1090;116955;-60
2021/08/09 03:37:39;;;;;;;5.57;2.87;;;;;;;13.90;76.83;99687.13;525665;1088;117053;-61
2021/08/09 03:47:47;;;;;;;6.60;3.10;;;;;;;13.97;76.78;99696.28;529672;1089;116654;-60
2021/08/09 03:57:53;;;;;;;7.47;3.73;;;;;;;14.06;76.98;99706.10;529690;1088;116499;-60
2021/08/09 04:08:01;;;;;;;2.43;2.23;;;;;;;14.38;76.93;99717.80;531822;1088;116773;-60
2021/08/09 04:18:07;;;;;;;2.77;2.37;;;;;;;14.77;76.39;99718.27;531979;1089;116947;-60
2021/08/09 04:28:14;;;;;;;5.70;2.70;;;;;;;15.34;76.06;99714.63;532575;1090;117481;-61
2021/08/09 04:38:20;;;;;;;8.87;2.67;;;;;;;16.24;75.77;99713.31;518894;1088;116481;-59
2021/08/09 04:48:27;;;;;;;2.50;2.20;;;;;;;16.97;73.95;99706.14;532318;1089;116921;-60
2021/08/09 04:58:34;;;;;;;5.30;1.53;;;;;;;17.63;72.46;99699.35;531733;1089;117430;-60
2021/08/09 05:08:41;;;;;;;3.70;1.80;;;;;;;21.54;72.02;99722.02;531632;1089;117034;-61
2021/08/09 05:18:48;;;;;;;5.75;1.20;;;;;;;32.09;58.33;99717.38;521258;1088;116400;-60
2021/08/09 05:28:54;;;;;;;4.25;1.35;;;;;;;26.11;53.28;99724.16;530749;1089;117615;-61
2021/08/09 05:39:04;;;;;;;6.40;2.63;;;;;;;33.53;50.33;99746.56;527581;1090;116254;-59
2021/08/09 05:49:10;;;;;;;6.00;2.33;;;;;;;39.32;41.27;99753.22;532458;1088;115950;-60
2021/08/09 05:59:17;;;;;;;3.23;1.37;;;;;;;44.29;34.85;99754.43;531600;1089;116365;-60
2021/08/09 06:09:24;;;;;;;1.07;0.67;;;;;;;45.29;30.23;99766.84;532396;1088;115920;-60
2021/08/09 06:19:31;;;;;;;1.23;0.80;;;;;;;46.41;26.69;99759.57;531834;1089;116724;-60
2021/08/09 06:29:37;;;;;;;3.05;1.20;;;;;;;46.36;23.28;99759.78;532589;1089;116802;-60
2021/08/09 06:39:45;;;;;;;3.30;1.05;;;;;;;47.93;22.51;99767.77;532531;1089;116503;-60
2021/08/09 06:49:51;;;;;;;5.45;1.33;;;;;;;48.21;21.83;99763.48;531834;1088;116351;-60
2021/08/09 06:59:58;;;;;;;6.03;1.88;;;;;;;48.51;20.17;99775.16;531674;1090;116411;-60
2021/08/09 07:10:05;;;;;;;4.23;1.70;;;;;;;46.89;19.38;99774.09;525064;1089;116671;-60
2021/08/09 07:20:14;;;;;;;;;;;;;;;45.51;19.74;99768.63;531876;1089;116403;-64
2021/08/09 07:30:22;;;;;;;5.15;2.60;;;;;;;49.66;18.07;99769.55;532803;1088;102749;-66
2021/08/09 07:40:29;;;;;;;3.43;2.90;;;;;;;49.56;16.46;99776.50;531922;1089;116705;-68
2021/08/09 07:50:37;;;;;;;3.90;3.70;;;;;;;50.05;16.39;99780.89;532505;1088;117316;-65
2021/08/09 08:00:45;;;;;;;4.75;4.45;;;;;;;47.72;15.76;99783.75;532500;1089;116538;-62
2021/08/09 08:10:51;;;;;;;2.53;2.23;;;;;;;50.71;15.17;99783.95;531660;1088;116142;-65
2021/08/09 08:20:59;;;;;;;5.35;1.00;;;;;;;42.73;16.83;99779.63;532387;1089;116904;-61
2021/08/09 08:31:06;;;;;;;1.40;0.95;;;;;;;34.82;22.33;99786.75;529074;1089;116424;-61
2021/08/09 08:41:16;;;;;;;1.37;0.80;;;;;;;31.32;25.75;99795.88;531801;1089;116453;-63
2021/08/09 08:51:24;;;;;;;2.00;1.00;;;;;;;29.27;27.59;99798.23;532493;1089;117423;-62
2021/08/09 09:01:44;;;;;;;2.10;1.00;;;;;;;28.51;29.54;99810.36;531771;1089;116921;-63
2021/08/09 09:11:51;;;;;;;3.90;1.23;;;;;;;28.31;29.87;99814.97;532487;1089;116477;-63
2021/08/09 09:21:59;;;;;;;1.47;0.50;;;;;;;27.91;29.90;99823.89;532487;1090;116334;-62
2021/08/09 09:32:18;;;;;;;2.07;0.67;;;;;;;27.25;29.89;99819.00;527344;1090;116621;-62
2021/08/09 09:42:36;;;;;;;4.07;1.13;;;;;;;27.09;30.84;99813.95;530870;1088;115980;-62
2021/08/09 09:52:46;;;;;;;0.55;0.50;;;;;;;26.90;29.73;99820.94;526525;1089;117188;-63
2021/08/09 10:02:52;;;;;;;1.60;0.70;;;;;;;26.52;29.72;99812.23;531678;1089;116560;-61
2021/08/09 10:13:00;;;;;;;4.30;0.73;;;;;;;26.42;30.06;99828.71;518049;1089;116607;-61
2021/08/09 10:23:07;;;;;;;1.83;0.40;;;;;;;26.13;30.96;99825.18;528284;1088;116721;-62
2021/08/09 10:33:15;;;;;;;0.78;0.50;;;;;;;25.82;31.28;99828.23;532567;1090;116191;-62
2021/08/09 10:43:22;;;;;;;1.18;0.40;;;;;;;25.41;31.53;99827.80;507278;1090;10001540;-61
2021/08/09 11:04:18;;;;;;;3.37;0.97;;;;;;;25.34;33.03;99810.78;524194;1092;64287;-61
2021/08/09 11:14:25;;;;;;;0.70;0.40;;;;;;;25.38;32.89;99821.95;519858;1093;115579;-62
2021/08/09 11:24:38;;;;;;;1.00;0.90;;;;;;;25.22;32.40;99826.55;521769;1092;115367;-62
2021/08/09 11:35:01;;;;;;;2.23;0.67;;;;;;;25.04;32.17;99827.77;522541;1093;116355;-62
2021/08/09 11:45:25;;;;;;;0.73;0.40;;;;;;;24.83;31.68;99825.86;523295;1093;117100;-62
2021/08/09 11:55:31;;;;;;;2.80;0.80;;;;;;;24.76;31.81;99830.30;529065;1092;115911;-61
2021/08/09 12:05:38;;;;;;;4.10;0.53;;;;;;;24.72;32.12;99824.47;524138;1092;116108;-60
2021/08/09 12:15:45;;;;;;;1.38;0.60;;;;;;;24.70;32.65;99831.03;528708;1093;116091;-61
2021/08/09 12:25:51;;;;;;;1.75;1.18;;;;;;;24.61;32.58;99823.06;527305;1093;116990;-60
2021/08/09 12:35:58;;;;;;;2.70;0.70;;;;;;;24.67;32.44;99832.22;522292;1093;115944;-58
2021/08/09 12:46:04;;;;;;;3.27;0.43;;;;;;;24.67;32.71;99832.22;516254;1091;10001592;-60
2021/08/09 12:56:11;;;;;;;2.57;0.60;;;;;;;24.56;33.02;99820.11;529028;1092;116442;-67
2021/08/09 13:06:17;;;;;;;3.73;0.75;;;;;;;24.60;32.80;99818.71;529866;1093;116517;-67
2021/08/09 13:16:24;;;;;;;6.30;0.80;;;;;;;24.49;31.95;99825.38;529916;1091;116579;-67
2021/08/09 13:26:30;;;;;;;3.53;0.80;;;;;;;24.51;32.41;99811.77;529755;1092;116983;-67
2021/08/09 13:36:38;;;;;;;0.43;0.43;;;;;;;24.45;31.92;99804.47;529811;1093;116529;-67
2021/08/09 13:46:45;;;;;;;2.20;0.70;;;;;;;24.40;32.23;99796.97;529196;1092;115984;-67
2021/08/09 13:56:51;;;;;;;5.73;0.90;;;;;;;24.39;32.05;99808.72;529857;1092;116247;-68
2021/08/09 14:06:58;;;;;;;1.63;0.50;;;;;;;24.36;32.48;99814.45;530507;1091;116207;-66
2021/08/09 14:17:05;;;;;;;0.73;0.40;;;;;;;24.35;32.69;99810.08;530132;1093;116291;-67
2021/08/09 14:27:12;;;;;;;2.18;0.93;;;;;;;24.25;32.29;99812.23;530498;1092;116627;-67
2021/08/09 14:37:21;;;;;;;0.80;0.70;;;;;;;24.23;32.05;99812.39;530699;1093;117369;-67
2021/08/09 14:47:27;;;;;;;2.40;0.60;;;;;;;24.19;32.37;99811.92;530611;1092;116376;-67
2021/08/09 14:57:34;;;;;;;5.07;0.90;;;;;;;24.17;32.78;99816.64;530017;1092;115889;-67
2021/08/09 15:07:40;;;;;;;1.37;0.50;;;;;;;24.18;32.23;99810.26;529263;1092;116022;-67
2021/08/09 15:17:48;;;;;;;4.80;1.03;;;;;;;24.08;33.11;99816.91;523839;1092;116521;-63
2021/08/09 15:27:55;;;;;;;3.58;0.60;;;;;;;24.03;33.51;99814.73;527631;1093;116139;-63
2021/08/09 15:38:02;;;;;;;0.60;0.50;;;;;;;23.92;33.10;99811.47;529529;1092;117322;-58
2021/08/09 15:48:09;;;;;;;0.80;0.70;;;;;;;23.87;34.02;99805.80;530238;1092;116491;-58
2021/08/09 15:58:15;;;;;;;2.60;0.90;;;;;;;23.81;33.51;99811.90;530335;1092;116160;-58
2021/08/09 16:08:22;;;;;;;2.70;0.80;;;;;;;23.67;33.85;99804.64;529763;1092;116537;-59
2021/08/09 16:18:29;;;;;;;2.87;0.80;;;;;;;23.50;33.85;99807.42;530459;1092;117001;-59
2021/08/09 16:28:36;;;;;;;0.58;0.55;;;;;;;23.33;34.61;99807.55;524335;1092;116494;-59
2021/08/09 16:38:42;;;;;;;1.78;0.83;;;;;;;23.15;34.82;99810.46;530704;1092;117499;-59
2021/08/09 16:48:49;;;;;;;3.40;0.80;;;;;;;22.98;35.54;99814.22;529896;1092;116717;-58
2021/08/09 16:58:56;;;;;;;1.60;1.33;;;;;;;22.73;36.50;99803.61;530260;1093;116342;-58
2021/08/09 17:09:02;;;;;;;4.73;0.83;;;;;;;22.51;37.18;99801.51;530786;1092;116784;-58
2021/08/09 17:19:09;;;;;;;3.60;1.23;;;;;;;22.58;38.15;99807.01;530805;1092;115552;-58
2021/08/09 17:29:19;;;;;;;6.43;1.75;;;;;;;22.13;38.68;99800.38;529767;1092;116447;-62
2021/08/09 17:39:26;;;;;;;3.77;1.17;;;;;;;21.66;39.02;99800.02;514329;1093;116425;-62
2021/08/09 17:49:33;;;;;;;1.87;1.33;;;;;;;21.23;41.41;99808.10;529607;1092;118291;-63
2021/08/09 17:59:40;;;;;;;6.03;1.33;;;;;;;20.69;43.22;99803.88;530014;1092;115954;-59
2021/08/09 18:09:46;;;;;;;6.40;1.87;;;;;;;20.17;45.08;99800.23;530565;1092;116432;-59
2021/08/09 18:19:54;;;;;;;9.00;2.20;;;;;;;19.58;47.44;99801.58;526771;1092;116702;-61
2021/08/09 18:30:05;;;;;;;11.07;3.13;;;;;;;19.08;49.53;99820.66;530295;1092;116959;-69
2021/08/09 18:40:13;;;;;;;13.63;2.93;;;;;;;18.59;50.66;99837.63;527481;1092;115387;-67
2021/08/09 18:50:20;;;;;;;10.85;3.20;;;;;;;18.10;52.64;99838.56;529960;1093;116269;-63
2021/08/09 19:00:27;;;;;;;7.57;3.40;;;;;;;17.77;53.98;99845.95;530077;1093;116305;-65
2021/08/09 19:10:33;;;;;;;8.43;3.33;;;;;;;17.43;54.17;99855.14;529124;1092;116307;-65
2021/08/09 19:20:41;;;;;;;9.23;3.73;;;;;;;17.13;56.14;99848.05;512985;1092;20001314;-63
2021/08/09 19:30:50;;;;;;;8.53;3.10;;;;;;;16.85;57.20;99855.73;530076;1093;116811;-63
2021/08/09 19:40:57;;;;;;;8.90;4.30;;;;;;;16.72;56.81;99859.45;517171;1092;116386;-59
2021/08/09 19:51:03;;;;;;;5.53;4.20;;;;;;;16.57;58.07;99850.99;520378;1092;116580;-60
2021/08/09 20:01:11;;;;;;;7.03;4.93;;;;;;;16.33;58.85;99848.60;529853;1092;116448;-61
2021/08/09 20:11:17;;;;;;;6.70;4.40;;;;;;;16.11;59.12;99859.20;529168;1091;115979;-66
2021/08/09 20:21:24;;;;;;;11.27;4.30;;;;;;;15.97;59.60;99868.28;525263;1092;115916;-63
2021/08/09 20:31:31;;;;;;;20.30;6.53;;;;;;;15.86;59.55;99864.82;529265;1092;116518;-63
2021/08/09 20:41:39;;;;;;;11.57;3.60;;;;;;;15.77;60.70;99869.07;527022;1093;116526;-63
2021/08/09 20:51:45;;;;;;;11.47;5.70;;;;;;;15.67;61.06;99869.81;529858;1092;116806;-63
2021/08/09 21:01:52;;;;;;;15.98;5.43;;;;;;;15.55;62.01;99879.58;529148;1092;116686;-63
2021/08/09 21:11:59;;;;;;;10.65;5.80;;;;;;;15.45;62.40;99867.22;529549;1093;116876;-63
2021/08/09 21:22:07;;;;;;;8.57;4.43;;;;;;;15.38;62.12;99864.23;530554;1092;116566;-63
2021/08/09 21:32:13;;;;;;;;;;;;;;;15.38;63.18;99857.11;521633;1092;116461;-63
2021/08/09 21:42:20;;;;;;;8.63;4.23;;;;;;;15.35;63.28;99869.73;529203;1092;102564;-63
2021/08/09 21:52:27;;;;;;;9.30;5.63;;;;;;;15.23;63.69;99850.41;520330;1092;116618;-63
2021/08/09 22:02:33;;;;;;;14.10;5.27;;;;;;;15.21;64.22;99854.98;513178;1092;116038;-64
2021/08/09 22:12:40;;;;;;;7.70;4.83;;;;;;;15.07;64.38;99854.28;516689;1092;116821;-65
2021/08/09 22:22:48;;;;;;;12.03;4.47;;;;;;;14.89;65.14;99866.30;529769;1092;116302;-63
2021/08/09 22:32:55;;;;;;;14.57;5.87;;;;;;;14.80;65.26;99857.28;530535;1092;116327;-64
2021/08/09 22:43:02;;;;;;;9.90;3.70;;;;;;;14.75;65.95;99867.35;530853;1092;116620;-63
2021/08/09 22:53:08;;;;;;;9.23;4.57;;;;;;;14.65;65.23;99868.03;529446;1092;116903;-63
2021/08/09 23:03:15;;;;;;;7.73;4.97;;;;;;;14.67;64.94;99866.13;512360;1092;116274;-63
2021/08/09 23:13:22;;;;;;;8.53;5.33;;;;;;;14.69;65.10;99881.85;530467;1092;116303;-63
2021/08/09 23:23:28;;;;;;;8.17;5.50;;;;;;;14.69;64.65;99874.78;530406;1092;117441;-63
2021/08/09 23:33:35;;;;;;;8.70;4.97;;;;;;;14.78;64.86;99877.72;530878;1092;117318;-63
2021/08/09 23:43:41;;;;;;;8.60;4.60;;;;;;;14.71;65.12;99872.86;529910;1092;116882;-64
2021/08/09 23:53:48;;;;;;;9.57;5.47;;;;;;;14.71;65.36;99874.64;530269;1092;116110;-63
